createdAt,value
2023-02-02T00:02:55.722Z,99996.09
2023-02-02T00:05:58.171Z,99984.06
2023-02-02T00:09:01.371Z,99981.47
2023-02-02T00:12:03.333Z,99978.94
2023-02-02T00:15:05.544Z,99992.06
2023-02-02T00:18:07.571Z,99996.19
2023-02-02T00:21:09.453Z,99991.78
2023-02-02T00:24:12.533Z,100005.31
2023-02-02T00:27:14.752Z,100008.78
2023-02-02T00:30:16.763Z,99980.50
2023-02-02T00:33:18.736Z,99977.13
2023-02-02T00:36:21.351Z,99975.44
2023-02-02T00:39:26.189Z,99967.50
2023-02-02T00:42:28.924Z,99940.63
2023-02-02T00:45:31.079Z,99926.72
2023-02-02T00:48:33.220Z,99917.63
2023-02-02T00:51:36.093Z,99925.28
2023-02-02T00:54:38.036Z,99946.19
2023-02-02T00:57:41.358Z,99959.22
2023-02-02T01:00:43.436Z,99963.19
2023-02-02T01:03:45.471Z,99960.56
2023-02-02T01:06:47.471Z,99953.22
2023-02-02T01:09:49.542Z,99956.47
2023-02-02T01:12:51.766Z,99965.13
2023-02-02T01:15:57.179Z,99966.22
2023-02-02T01:19:01.212Z,99975.69
2023-02-02T01:22:03.591Z,99963.87
2023-02-02T01:25:05.748Z,99949.53
2023-02-02T01:28:07.984Z,99947.22
2023-02-02T01:31:12.013Z,99957.66
2023-02-02T01:34:14.252Z,99973.56
2023-02-02T01:37:16.372Z,99972.06
2023-02-02T01:40:19.023Z,99987.56
2023-02-02T01:43:22.470Z,99973.06
2023-02-02T01:46:28.080Z,99981.62
2023-02-02T01:49:30.346Z,99973.81
2023-02-02T01:52:33.523Z,99963.56
2023-02-02T01:55:38.364Z,99950.19
2023-02-02T01:58:42.263Z,99959.75
2023-02-02T02:01:45.846Z,99946.03
2023-02-02T02:04:49.429Z,99949.88
2023-02-02T02:07:52.018Z,99945.88
2023-02-02T02:10:54.338Z,99947.63
2023-02-02T02:14:17.008Z,99935.47
2023-02-02T02:17:19.590Z,99941.44
2023-02-02T02:20:49.890Z,99939.03
2023-02-02T02:24:20.542Z,99927.97
2023-02-02T02:27:41.858Z,99919.38
2023-02-02T02:31:17.621Z,99926.13
2023-02-02T02:34:30.934Z,99911.00
2023-02-02T02:37:52.567Z,99929.03
2023-02-02T02:40:58.587Z,99965.31
2023-02-02T02:44:05.192Z,99948.37
2023-02-02T02:47:10.345Z,99953.59
2023-02-02T02:50:13.611Z,99948.44
2023-02-02T02:53:21.440Z,99959.97
2023-02-02T02:56:33.025Z,99957.38
2023-02-02T02:59:45.190Z,99966.25
2023-02-02T03:02:55.422Z,99964.75
2023-02-02T03:06:10.939Z,99959.91
2023-02-02T03:09:16.426Z,99954.03
2023-02-02T03:12:19.614Z,99961.84
2023-02-02T03:15:22.550Z,99973.84
2023-02-02T03:18:27.948Z,99957.44
2023-02-02T03:21:30.631Z,99975.66
2023-02-02T03:24:36.589Z,99964.66
2023-02-02T03:27:41.013Z,99960.31
2023-02-02T03:30:47.853Z,99979.34
2023-02-02T03:33:50.977Z,99976.72
2023-02-02T03:36:54.392Z,99968.22
2023-02-02T03:39:59.103Z,99956.28
2023-02-02T03:43:02.212Z,99958.09
2023-02-02T03:46:06.378Z,99961.66
2023-02-02T03:49:09.829Z,99969.69
2023-02-02T03:52:16.194Z,99965.72
2023-02-02T03:55:19.087Z,99969.47
2023-02-02T03:58:23.913Z,99973.06
2023-02-02T04:01:30.327Z,99954.41
2023-02-02T04:04:35.523Z,99963.22
2023-02-02T04:07:39.043Z,99965.94
2023-02-02T04:10:46.324Z,99944.78
2023-02-02T04:13:50.227Z,99927.63
2023-02-02T04:16:52.605Z,99931.91
2023-02-02T04:20:01.026Z,99924.44
2023-02-02T04:23:04.530Z,99916.78
2023-02-02T04:26:11.629Z,99925.69
2023-02-02T04:29:16.144Z,99934.13
2023-02-02T04:32:20.043Z,99925.44
2023-02-02T04:35:23.107Z,99923.19
2023-02-02T04:38:30.130Z,99932.78
2023-02-02T04:41:36.488Z,99924.31
2023-02-02T04:44:44.843Z,99936.41
2023-02-02T04:47:48.318Z,99929.81
2023-02-02T04:50:58.583Z,99941.22
2023-02-02T04:54:03.320Z,99934.25
2023-02-02T04:57:07.276Z,99929.03
2023-02-02T05:00:14.799Z,99927.97
2023-02-02T05:03:21.251Z,99935.69
2023-02-02T05:06:25.054Z,99933.22
2023-02-02T05:09:28.102Z,99935.28
2023-02-02T05:12:33.620Z,99921.78
2023-02-02T05:15:37.739Z,99937.38
2023-02-02T05:18:40.930Z,99954.56
2023-02-02T05:21:51.018Z,99964.91
2023-02-02T05:24:54.817Z,99972.69
2023-02-02T05:27:58.504Z,99982.25
2023-02-02T05:31:01.708Z,99998.66
2023-02-02T05:34:05.412Z,100008.09
2023-02-02T05:37:07.981Z,100022.16
2023-02-02T05:40:11.788Z,100020.41
2023-02-02T05:43:17.866Z,100010.94
2023-02-02T05:46:28.417Z,100023.81
2023-02-02T05:49:32.558Z,100023.03
2023-02-02T05:52:36.267Z,100035.16
2023-02-02T05:55:39.047Z,100049.00
2023-02-02T05:58:41.864Z,100053.41
2023-02-02T06:01:51.147Z,100062.97
2023-02-02T06:04:56.945Z,100051.09
2023-02-02T06:07:59.254Z,100057.22
2023-02-02T06:11:14.347Z,100045.16
2023-02-02T06:14:19.929Z,100037.56
2023-02-02T06:17:26.874Z,100035.91
2023-02-02T06:20:30.385Z,100026.31
2023-02-02T06:23:34.808Z,100023.25
2023-02-02T06:26:42.074Z,100022.06
2023-02-02T06:29:51.232Z,100028.91
2023-02-02T06:32:59.028Z,100018.34
2023-02-02T06:36:04.268Z,100020.91
2023-02-02T06:39:10.949Z,100025.09
2023-02-02T06:42:21.392Z,100020.47
2023-02-02T06:45:27.589Z,100022.72
2023-02-02T06:48:31.396Z,100017.38
2023-02-02T06:51:36.121Z,100025.78
2023-02-02T06:54:43.281Z,100014.59
2023-02-02T06:57:47.321Z,100010.78
2023-02-02T07:00:52.461Z,100020.03
2023-02-02T07:03:57.906Z,100032.88
2023-02-02T07:07:03.639Z,100037.94
2023-02-02T07:10:08.486Z,100049.78
2023-02-02T07:13:13.420Z,100044.44
2023-02-02T07:16:25.125Z,100049.53
2023-02-02T07:19:31.999Z,100063.87
2023-02-02T07:22:39.695Z,100054.16
2023-02-02T07:25:45.865Z,100063.41
2023-02-02T07:28:55.912Z,100076.03
2023-02-02T07:31:58.951Z,100087.47
2023-02-02T07:35:05.602Z,100105.81
2023-02-02T07:38:08.351Z,100118.91
2023-02-02T07:41:11.372Z,100120.38
2023-02-02T07:44:22.359Z,100130.22
2023-02-02T07:47:26.514Z,100141.91
2023-02-02T07:50:34.142Z,100147.50
2023-02-02T07:53:40.616Z,100138.13
2023-02-02T07:56:46.304Z,100142.00
2023-02-02T07:59:51.322Z,100139.19
2023-02-02T08:02:55.714Z,100129.59
2023-02-02T08:06:01.495Z,100127.06
2023-02-02T08:09:09.709Z,100131.03
2023-02-02T08:12:24.882Z,100138.00
2023-02-02T08:15:30.528Z,100133.88
2023-02-02T08:18:35.374Z,100139.00
2023-02-02T08:21:42.040Z,100139.78
2023-02-02T08:24:47.364Z,100141.91
2023-02-02T08:27:55.990Z,100135.19
2023-02-02T08:31:04.351Z,100143.88
2023-02-02T08:34:10.581Z,100135.53
2023-02-02T08:37:14.286Z,100137.03
2023-02-02T08:40:17.600Z,100123.34
2023-02-02T08:43:22.627Z,100125.81
2023-02-02T08:46:27.847Z,100114.25
2023-02-02T08:49:32.638Z,100111.94
2023-02-02T08:52:37.435Z,100124.72
2023-02-02T08:55:46.980Z,100121.34
2023-02-02T08:58:53.586Z,100126.47
2023-02-02T09:01:57.060Z,100129.44
2023-02-02T09:05:00.529Z,100145.66
2023-02-02T09:08:06.084Z,100141.87
2023-02-02T09:11:20.953Z,100145.31
2023-02-02T09:14:23.409Z,100144.03
2023-02-02T09:17:27.377Z,100137.44
2023-02-02T09:20:32.171Z,100135.25
2023-02-02T09:23:42.028Z,100141.63
2023-02-02T09:26:46.129Z,100140.44
2023-02-02T09:29:51.789Z,100136.53
2023-02-02T09:32:54.543Z,100125.13
2023-02-02T09:36:06.696Z,100134.97
2023-02-02T09:39:13.355Z,100135.34
2023-02-02T09:42:38.064Z,100140.91
2023-02-02T09:45:53.671Z,100138.50
2023-02-02T09:49:06.864Z,100156.22
2023-02-02T09:52:14.652Z,100148.91
2023-02-02T09:55:24.409Z,100147.72
2023-02-02T09:58:27.207Z,100165.19
2023-02-02T10:01:38.815Z,100154.97
2023-02-02T10:04:42.785Z,100167.50
2023-02-02T10:07:49.899Z,100164.94
2023-02-02T10:10:55.309Z,100187.34
2023-02-02T10:14:05.808Z,100178.50
2023-02-02T10:17:30.536Z,100173.38
2023-02-02T10:20:49.562Z,100181.09
2023-02-02T10:23:56.957Z,100169.91
2023-02-02T10:27:07.738Z,100161.47
2023-02-02T10:30:20.242Z,100160.94
2023-02-02T10:33:44.940Z,100148.28
2023-02-02T10:37:00.321Z,100136.78
2023-02-02T10:40:26.225Z,100144.75
2023-02-02T10:43:48.955Z,100140.03
2023-02-02T10:46:55.914Z,100142.44
2023-02-02T10:50:08.885Z,100142.53
2023-02-02T10:53:18.856Z,100143.81
2023-02-02T10:56:44.171Z,100143.44
2023-02-02T10:59:55.880Z,100129.25
2023-02-02T11:03:01.768Z,100127.44
2023-02-02T11:06:27.664Z,100151.03
2023-02-02T11:09:37.699Z,100157.66
2023-02-02T11:12:48.163Z,100153.56
2023-02-02T11:15:51.326Z,100148.03
2023-02-02T11:18:58.443Z,100139.22
2023-02-02T11:22:03.790Z,100151.72
2023-02-02T11:25:08.622Z,100163.97
2023-02-02T11:28:21.247Z,100164.88
2023-02-02T11:31:37.295Z,100157.88
2023-02-02T11:34:41.651Z,100156.94
2023-02-02T11:37:58.429Z,100174.94
2023-02-02T11:41:06.313Z,100165.03
2023-02-02T11:44:17.482Z,100189.81
2023-02-02T11:47:29.693Z,100186.75
2023-02-02T11:50:43.965Z,100184.25
2023-02-02T11:54:05.642Z,100192.94
2023-02-02T12:01:13.049Z,100192.50
2023-02-02T12:04:20.601Z,100197.31
2023-02-02T12:07:26.704Z,100194.72
2023-02-02T12:10:45.473Z,100194.59
2023-02-02T12:14:12.864Z,100198.50
2023-02-02T12:17:34.187Z,100187.62
2023-02-02T12:24:59.035Z,100182.87
2023-02-02T12:28:13.964Z,100187.38
2023-02-02T12:31:38.378Z,100187.19
2023-02-02T12:34:45.126Z,100184.22
2023-02-02T12:37:58.234Z,100194.59
2023-02-02T12:41:19.958Z,100175.97
2023-02-02T12:52:21.123Z,100175.81
2023-02-02T12:59:19.359Z,100173.75
2023-02-02T13:06:10.415Z,100187.53
2023-02-02T13:13:12.705Z,100188.19
2023-02-02T13:16:16.569Z,100192.19
2023-02-02T13:19:29.018Z,100190.09
2023-02-02T13:22:42.319Z,100197.31
2023-02-02T13:25:49.533Z,100194.13
2023-02-02T13:29:30.017Z,100202.75
2023-02-02T13:32:39.135Z,100195.53
2023-02-02T13:39:19.942Z,100207.50
2023-02-02T13:42:32.645Z,100210.88
2023-02-02T13:46:13.670Z,100203.56
2023-02-02T13:49:52.251Z,100202.84
2023-02-02T13:53:21.825Z,100198.97
2023-02-02T13:56:40.551Z,100203.97
2023-02-02T13:59:49.269Z,100206.75
2023-02-02T14:02:55.742Z,100205.59
2023-02-02T14:06:19.094Z,100200.41
2023-02-02T14:09:30.054Z,100215.09
2023-02-02T14:12:46.090Z,100212.69
2023-02-02T14:16:07.460Z,100216.22
2023-02-02T14:19:25.022Z,100213.44
2023-02-02T14:23:02.609Z,100220.78
2023-02-02T14:30:02.612Z,100219.63
2023-02-02T14:33:25.829Z,100220.63
2023-02-02T14:36:37.729Z,100225.50
2023-02-02T14:43:48.676Z,100221.66
2023-02-02T14:46:55.287Z,100225.59
2023-02-02T15:04:12.198Z,100239.53
2023-02-02T15:07:40.174Z,100243.63
2023-02-02T15:10:46.895Z,100243.81
2023-02-02T15:14:00.152Z,100243.41
2023-02-02T15:17:35.434Z,100250.34
2023-02-02T15:20:50.057Z,100252.78
2023-02-02T15:24:00.055Z,100245.56
2023-02-02T15:27:08.859Z,100256.75
2023-02-02T15:30:16.912Z,100261.00
2023-02-02T15:33:37.877Z,100262.00
2023-02-02T15:36:45.581Z,100272.16
2023-02-02T15:39:52.562Z,100268.97
2023-02-02T15:43:12.344Z,100271.78
2023-02-02T15:46:38.015Z,100278.88
2023-02-02T15:49:46.590Z,100277.72
2023-02-02T15:52:57.873Z,100296.94
2023-02-02T15:59:28.139Z,100303.62
2023-02-02T16:02:35.717Z,100305.66
2023-02-02T16:05:38.796Z,100304.53
2023-02-02T16:08:42.308Z,100305.88
2023-02-02T16:11:51.847Z,100306.69
2023-02-02T16:15:08.058Z,100309.84
2023-02-02T16:18:23.225Z,100307.56
2023-02-02T16:21:45.100Z,100320.00
2023-02-02T16:24:54.085Z,100318.25
2023-02-02T16:28:06.509Z,100315.72
2023-02-02T16:34:48.315Z,100330.00
2023-02-02T16:37:57.320Z,100338.22
2023-02-02T17:07:43.634Z,100393.00
2023-02-02T17:11:38.530Z,100387.19
2023-02-02T17:22:42.508Z,100409.28
2023-02-02T17:40:23.408Z,100419.34
2023-02-02T17:50:55.578Z,100432.56
2023-02-02T17:54:18.833Z,100438.53
2023-02-02T17:57:24.188Z,100451.34
2023-02-02T18:00:32.136Z,100452.44
2023-02-02T18:17:35.380Z,100453.94
2023-02-02T18:27:41.245Z,100464.47
2023-02-02T18:42:18.951Z,100467.97
2023-02-02T18:45:36.601Z,100477.19
2023-02-02T19:06:32.418Z,100489.22
2023-02-02T19:09:42.942Z,100480.69
2023-02-02T19:13:05.947Z,100487.47
2023-02-02T19:16:27.612Z,100489.28
2023-02-02T19:26:26.633Z,100515.69
2023-02-02T19:33:11.915Z,100513.69
2023-02-02T19:43:33.674Z,100521.38
2023-02-02T19:46:49.059Z,100527.75
2023-02-02T19:53:24.635Z,100533.28
2023-02-02T19:57:08.658Z,100536.91
2023-02-02T20:00:51.012Z,100548.91
2023-02-02T20:04:08.827Z,100561.88
2023-02-02T20:07:17.139Z,100558.41
2023-02-02T20:14:09.816Z,100562.59
2023-02-02T20:24:42.248Z,100573.22
2023-02-02T20:28:00.135Z,100573.81
2023-02-02T20:31:26.500Z,100581.56
2023-02-02T20:42:14.699Z,100604.03
2023-02-02T20:53:04.333Z,100615.12
2023-02-02T20:56:21.620Z,100624.97
2023-02-02T21:14:44.744Z,100655.59
2023-02-02T21:43:24.078Z,100657.94
2023-02-02T21:47:03.251Z,100655.41
2023-02-02T21:50:28.863Z,100665.47
2023-02-02T22:01:19.708Z,100685.31
2023-02-02T22:04:38.281Z,100685.31
2023-02-02T22:29:44.444Z,100705.84
2023-02-02T22:40:16.230Z,100712.38
2023-02-02T22:47:01.724Z,100722.72
2023-02-02T22:50:06.863Z,100725.37
2023-02-02T22:53:20.048Z,100728.25
2023-02-02T22:56:34.572Z,100736.00
2023-02-02T23:10:02.254Z,100766.50
2023-02-02T23:34:22.522Z,100794.44
2023-02-02T23:44:35.203Z,100804.72
2023-02-02T23:48:10.088Z,100809.84
2023-02-02T23:55:25.553Z,100822.63
2023-02-02T23:59:06.946Z,100821.03
